sensor_id;sensor_type;location;lat;lon;timestamp;temperature;humidity
12309;DHT22;6217;48.150;17.142;2023-07-24T00:03:45;24.90;78.80
12309;DHT22;6217;48.150;17.142;2023-07-24T00:07:51;24.90;79.00
12309;DHT22;6217;48.150;17.142;2023-07-24T00:11:57;24.90;79.10
12309;DHT22;6217;48.150;17.142;2023-07-24T00:16:09;24.80;79.20
12309;DHT22;6217;48.150;17.142;2023-07-24T00:20:15;24.80;79.60
12309;DHT22;6217;48.150;17.142;2023-07-24T00:24:21;24.80;79.50
12309;DHT22;6217;48.150;17.142;2023-07-24T00:28:27;24.70;79.90
12309;DHT22;6217;48.150;17.142;2023-07-24T00:32:33;24.50;80.30
12309;DHT22;6217;48.150;17.142;2023-07-24T00:36:41;24.50;80.70
12309;DHT22;6217;48.150;17.142;2023-07-24T00:40:47;24.50;80.70
12309;DHT22;6217;48.150;17.142;2023-07-24T00:44:53;24.50;80.90
12309;DHT22;6217;48.150;17.142;2023-07-24T00:49:00;24.40;81.20
12309;DHT22;6217;48.150;17.142;2023-07-24T00:53:11;24.40;81.60
12309;DHT22;6217;48.150;17.142;2023-07-24T00:57:19;24.30;81.70
12309;DHT22;6217;48.150;17.142;2023-07-24T01:01:25;24.30;82.10
12309;DHT22;6217;48.150;17.142;2023-07-24T01:05:31;24.20;82.20
12309;DHT22;6217;48.150;17.142;2023-07-24T01:09:37;24.20;82.60
12309;DHT22;6217;48.150;17.142;2023-07-24T01:13:57;24.20;83.10
12309;DHT22;6217;48.150;17.142;2023-07-24T01:18:09;24.10;84.20
12309;DHT22;6217;48.150;17.142;2023-07-24T01:26:34;24.10;83.90
12309;DHT22;6217;48.150;17.142;2023-07-24T01:30:40;24.10;83.60
12309;DHT22;6217;48.150;17.142;2023-07-24T01:34:46;24.10;83.80
12309;DHT22;6217;48.150;17.142;2023-07-24T01:38:53;24.00;84.50
12309;DHT22;6217;48.150;17.142;2023-07-24T01:42:59;24.00;85.10
12309;DHT22;6217;48.150;17.142;2023-07-24T01:47:05;24.00;85.00
12309;DHT22;6217;48.150;17.142;2023-07-24T01:51:11;24.00;85.00
12309;DHT22;6217;48.150;17.142;2023-07-24T01:55:17;23.90;85.20
12309;DHT22;6217;48.150;17.142;2023-07-24T01:59:23;23.90;85.50
12309;DHT22;6217;48.150;17.142;2023-07-24T02:03:29;23.70;86.40
12309;DHT22;6217;48.150;17.142;2023-07-24T02:07:35;23.70;86.80
12309;DHT22;6217;48.150;17.142;2023-07-24T02:11:41;23.80;86.70
12309;DHT22;6217;48.150;17.142;2023-07-24T02:15:47;23.80;86.70
12309;DHT22;6217;48.150;17.142;2023-07-24T02:19:53;23.80;86.70
12309;DHT22;6217;48.150;17.142;2023-07-24T02:24:00;23.70;87.10
12309;DHT22;6217;48.150;17.142;2023-07-24T02:28:06;23.70;87.40
12309;DHT22;6217;48.150;17.142;2023-07-24T02:32:12;23.60;87.40
12309;DHT22;6217;48.150;17.142;2023-07-24T02:36:18;23.60;87.60
12309;DHT22;6217;48.150;17.142;2023-07-24T02:40:25;23.60;87.80
12309;DHT22;6217;48.150;17.142;2023-07-24T02:44:33;23.60;87.80
12309;DHT22;6217;48.150;17.142;2023-07-24T02:48:41;23.60;87.90
12309;DHT22;6217;48.150;17.142;2023-07-24T02:52:47;23.60;87.70
12309;DHT22;6217;48.150;17.142;2023-07-24T02:56:53;23.50;87.70
12309;DHT22;6217;48.150;17.142;2023-07-24T03:01:06;23.40;88.20
12309;DHT22;6217;48.150;17.142;2023-07-24T03:05:12;23.20;88.60
12309;DHT22;6217;48.150;17.142;2023-07-24T03:09:19;23.00;88.60
12309;DHT22;6217;48.150;17.142;2023-07-24T03:13:26;22.90;88.70
12309;DHT22;6217;48.150;17.142;2023-07-24T03:17:32;22.80;88.60
12309;DHT22;6217;48.150;17.142;2023-07-24T03:21:38;22.70;88.90
12309;DHT22;6217;48.150;17.142;2023-07-24T03:25:44;22.50;89.30
12309;DHT22;6217;48.150;17.142;2023-07-24T03:29:50;22.40;89.50
12309;DHT22;6217;48.150;17.142;2023-07-24T03:33:56;22.30;90.10
12309;DHT22;6217;48.150;17.142;2023-07-24T03:38:02;22.20;90.30
12309;DHT22;6217;48.150;17.142;2023-07-24T03:42:10;22.10;90.50
12309;DHT22;6217;48.150;17.142;2023-07-24T03:46:18;22.10;90.40
12309;DHT22;6217;48.150;17.142;2023-07-24T03:50:24;22.10;90.40
12309;DHT22;6217;48.150;17.142;2023-07-24T03:54:29;22.00;90.60
12309;DHT22;6217;48.150;17.142;2023-07-24T03:58:36;22.00;90.70
12309;DHT22;6217;48.150;17.142;2023-07-24T04:02:44;22.10;90.60
12309;DHT22;6217;48.150;17.142;2023-07-24T04:06:50;22.10;90.60
12309;DHT22;6217;48.150;17.142;2023-07-24T04:10:56;22.00;90.70
12309;DHT22;6217;48.150;17.142;2023-07-24T04:15:02;22.00;90.80
12309;DHT22;6217;48.150;17.142;2023-07-24T04:19:08;22.00;90.90
12309;DHT22;6217;48.150;17.142;2023-07-24T04:23:14;22.00;91.00
12309;DHT22;6217;48.150;17.142;2023-07-24T04:27:20;22.00;91.10
12309;DHT22;6217;48.150;17.142;2023-07-24T04:31:26;22.10;91.10
12309;DHT22;6217;48.150;17.142;2023-07-24T04:35:32;22.00;91.20
12309;DHT22;6217;48.150;17.142;2023-07-24T04:39:41;22.00;91.30
12309;DHT22;6217;48.150;17.142;2023-07-24T04:43:47;22.10;91.40
12309;DHT22;6217;48.150;17.142;2023-07-24T04:47:52;22.10;91.40
12309;DHT22;6217;48.150;17.142;2023-07-24T04:51:59;22.20;91.30
12309;DHT22;6217;48.150;17.142;2023-07-24T04:56:05;22.40;91.30
12309;DHT22;6217;48.150;17.142;2023-07-24T05:00:11;22.60;91.00
12309;DHT22;6217;48.150;17.142;2023-07-24T05:04:17;22.70;91.00
12309;DHT22;6217;48.150;17.142;2023-07-24T05:08:23;22.60;91.00
12309;DHT22;6217;48.150;17.142;2023-07-24T05:12:29;22.60;91.10
12309;DHT22;6217;48.150;17.142;2023-07-24T05:16:35;22.70;91.10
12309;DHT22;6217;48.150;17.142;2023-07-24T05:20:45;22.60;91.20
12309;DHT22;6217;48.150;17.142;2023-07-24T05:24:54;22.50;91.50
12309;DHT22;6217;48.150;17.142;2023-07-24T05:29:00;22.50;91.50
12309;DHT22;6217;48.150;17.142;2023-07-24T05:33:06;22.60;91.60
12309;DHT22;6217;48.150;17.142;2023-07-24T05:37:11;22.70;91.50
12309;DHT22;6217;48.150;17.142;2023-07-24T05:41:17;22.80;91.40
12309;DHT22;6217;48.150;17.142;2023-07-24T05:45:23;22.70;91.50
12309;DHT22;6217;48.150;17.142;2023-07-24T05:49:29;22.90;91.50
12309;DHT22;6217;48.150;17.142;2023-07-24T05:53:35;23.00;91.60
12309;DHT22;6217;48.150;17.142;2023-07-24T05:57:41;23.00;91.70
12309;DHT22;6217;48.150;17.142;2023-07-24T06:01:47;23.10;91.70
12309;DHT22;6217;48.150;17.142;2023-07-24T06:05:53;23.30;91.50
12309;DHT22;6217;48.150;17.142;2023-07-24T06:10:00;23.30;91.40
12309;DHT22;6217;48.150;17.142;2023-07-24T06:14:05;23.30;91.60
12309;DHT22;6217;48.150;17.142;2023-07-24T06:18:11;23.50;91.90
12309;DHT22;6217;48.150;17.142;2023-07-24T06:22:17;23.70;91.90
12309;DHT22;6217;48.150;17.142;2023-07-24T06:26:23;23.90;91.60
12309;DHT22;6217;48.150;17.142;2023-07-24T06:30:29;24.20;91.40
12309;DHT22;6217;48.150;17.142;2023-07-24T06:34:35;24.40;91.00
12309;DHT22;6217;48.150;17.142;2023-07-24T06:38:41;24.40;90.90
12309;DHT22;6217;48.150;17.142;2023-07-24T06:42:48;24.50;90.80
12309;DHT22;6217;48.150;17.142;2023-07-24T06:46:53;24.70;90.80
12309;DHT22;6217;48.150;17.142;2023-07-24T06:50:59;24.80;90.50
12309;DHT22;6217;48.150;17.142;2023-07-24T06:55:05;24.90;90.40
12309;DHT22;6217;48.150;17.142;2023-07-24T06:59:12;25.20;90.10
12309;DHT22;6217;48.150;17.142;2023-07-24T07:03:18;25.50;88.90
12309;DHT22;6217;48.150;17.142;2023-07-24T07:07:24;25.60;88.40
12309;DHT22;6217;48.150;17.142;2023-07-24T07:11:30;26.00;87.70
12309;DHT22;6217;48.150;17.142;2023-07-24T07:15:36;26.10;86.80
12309;DHT22;6217;48.150;17.142;2023-07-24T07:19:42;26.30;86.10
12309;DHT22;6217;48.150;17.142;2023-07-24T07:23:48;26.40;85.40
12309;DHT22;6217;48.150;17.142;2023-07-24T07:27:54;26.60;85.10
12309;DHT22;6217;48.150;17.142;2023-07-24T07:31:59;26.80;84.40
12309;DHT22;6217;48.150;17.142;2023-07-24T07:36:06;26.80;83.20
12309;DHT22;6217;48.150;17.142;2023-07-24T07:40:12;26.70;83.10
12309;DHT22;6217;48.150;17.142;2023-07-24T07:44:18;26.60;83.30
12309;DHT22;6217;48.150;17.142;2023-07-24T07:48:23;26.70;83.40
12309;DHT22;6217;48.150;17.142;2023-07-24T07:52:29;26.90;82.90
12309;DHT22;6217;48.150;17.142;2023-07-24T07:56:35;26.90;81.80
12309;DHT22;6217;48.150;17.142;2023-07-24T08:00:41;26.90;82.30
12309;DHT22;6217;48.150;17.142;2023-07-24T08:04:47;27.00;82.40
12309;DHT22;6217;48.150;17.142;2023-07-24T08:08:53;27.70;81.80
12309;DHT22;6217;48.150;17.142;2023-07-24T08:12:59;28.70;77.80
12309;DHT22;6217;48.150;17.142;2023-07-24T08:17:08;29.20;76.90
12309;DHT22;6217;48.150;17.142;2023-07-24T08:21:14;30.50;73.10
12309;DHT22;6217;48.150;17.142;2023-07-24T08:25:20;30.90;71.00
12309;DHT22;6217;48.150;17.142;2023-07-24T08:29:26;30.10;71.30
12309;DHT22;6217;48.150;17.142;2023-07-24T08:33:32;29.50;73.10
12309;DHT22;6217;48.150;17.142;2023-07-24T08:37:38;29.20;73.80
12309;DHT22;6217;48.150;17.142;2023-07-24T08:41:44;29.00;74.50
12309;DHT22;6217;48.150;17.142;2023-07-24T08:45:50;29.00;74.60
12309;DHT22;6217;48.150;17.142;2023-07-24T08:49:56;29.20;74.00
12309;DHT22;6217;48.150;17.142;2023-07-24T08:54:02;29.40;72.70
12309;DHT22;6217;48.150;17.142;2023-07-24T08:58:09;29.70;72.30
12309;DHT22;6217;48.150;17.142;2023-07-24T09:02:15;29.80;71.20
12309;DHT22;6217;48.150;17.142;2023-07-24T09:06:21;29.80;70.30
12309;DHT22;6217;48.150;17.142;2023-07-24T09:10:27;30.00;69.60
12309;DHT22;6217;48.150;17.142;2023-07-24T09:14:34;30.20;69.20
12309;DHT22;6217;48.150;17.142;2023-07-24T09:18:40;30.50;68.80
12309;DHT22;6217;48.150;17.142;2023-07-24T09:22:52;30.70;67.80
12309;DHT22;6217;48.150;17.142;2023-07-24T09:26:58;30.80;67.30
12309;DHT22;6217;48.150;17.142;2023-07-24T09:31:06;30.80;66.80
12309;DHT22;6217;48.150;17.142;2023-07-24T09:35:18;30.90;66.30
12309;DHT22;6217;48.150;17.142;2023-07-24T09:39:26;30.90;66.00
12309;DHT22;6217;48.150;17.142;2023-07-24T09:43:33;30.90;65.40
12309;DHT22;6217;48.150;17.142;2023-07-24T09:47:41;31.10;65.10
12309;DHT22;6217;48.150;17.142;2023-07-24T09:51:53;31.40;64.80
12309;DHT22;6217;48.150;17.142;2023-07-24T09:56:05;31.50;63.90
12309;DHT22;6217;48.150;17.142;2023-07-24T10:00:12;31.80;63.70
12309;DHT22;6217;48.150;17.142;2023-07-24T10:04:19;31.90;61.70
12309;DHT22;6217;48.150;17.142;2023-07-24T10:08:26;32.20;60.50
12309;DHT22;6217;48.150;17.142;2023-07-24T10:12:32;32.20;58.80
12309;DHT22;6217;48.150;17.142;2023-07-24T10:16:39;32.40;58.00
12309;DHT22;6217;48.150;17.142;2023-07-24T10:20:46;32.50;57.30
12309;DHT22;6217;48.150;17.142;2023-07-24T10:24:55;32.70;56.60
12309;DHT22;6217;48.150;17.142;2023-07-24T10:29:01;32.90;55.90
12309;DHT22;6217;48.150;17.142;2023-07-24T10:33:17;32.90;55.60
12309;DHT22;6217;48.150;17.142;2023-07-24T10:37:35;33.00;54.30
12309;DHT22;6217;48.150;17.142;2023-07-24T10:41:41;33.10;53.50
12309;DHT22;6217;48.150;17.142;2023-07-24T10:45:51;33.10;53.40
12309;DHT22;6217;48.150;17.142;2023-07-24T10:49:58;33.30;53.30
12309;DHT22;6217;48.150;17.142;2023-07-24T10:54:06;33.30;52.30
12309;DHT22;6217;48.150;17.142;2023-07-24T10:58:13;33.40;51.10
12309;DHT22;6217;48.150;17.142;2023-07-24T11:02:19;33.50;51.20
12309;DHT22;6217;48.150;17.142;2023-07-24T11:06:28;33.40;50.50
12309;DHT22;6217;48.150;17.142;2023-07-24T11:10:34;33.30;51.20
12309;DHT22;6217;48.150;17.142;2023-07-24T11:14:50;33.20;51.40
12309;DHT22;6217;48.150;17.142;2023-07-24T11:18:57;33.30;50.40
12309;DHT22;6217;48.150;17.142;2023-07-24T11:23:03;33.30;47.80
12309;DHT22;6217;48.150;17.142;2023-07-24T11:27:12;33.40;47.30
12309;DHT22;6217;48.150;17.142;2023-07-24T11:31:26;33.50;47.20
12309;DHT22;6217;48.150;17.142;2023-07-24T11:35:35;33.60;48.10
12309;DHT22;6217;48.150;17.142;2023-07-24T11:40:01;33.50;49.50
12309;DHT22;6217;48.150;17.142;2023-07-24T11:44:10;33.50;50.20
12309;DHT22;6217;48.150;17.142;2023-07-24T11:48:16;33.60;50.50
12309;DHT22;6217;48.150;17.142;2023-07-24T11:52:22;33.50;50.40
12309;DHT22;6217;48.150;17.142;2023-07-24T11:56:29;33.40;50.50
12309;DHT22;6217;48.150;17.142;2023-07-24T12:00:35;33.30;49.80
12309;DHT22;6217;48.150;17.142;2023-07-24T12:04:41;33.30;49.10
12309;DHT22;6217;48.150;17.142;2023-07-24T12:08:47;33.40;49.40
12309;DHT22;6217;48.150;17.142;2023-07-24T12:12:54;33.50;49.70
12309;DHT22;6217;48.150;17.142;2023-07-24T12:17:03;33.40;49.80
12309;DHT22;6217;48.150;17.142;2023-07-24T12:21:15;33.50;49.90
12309;DHT22;6217;48.150;17.142;2023-07-24T12:25:21;33.50;50.10
12309;DHT22;6217;48.150;17.142;2023-07-24T12:29:27;33.50;50.20
12309;DHT22;6217;48.150;17.142;2023-07-24T12:33:38;33.50;50.50
12309;DHT22;6217;48.150;17.142;2023-07-24T12:37:45;33.50;51.00
12309;DHT22;6217;48.150;17.142;2023-07-24T12:41:51;33.50;51.00
12309;DHT22;6217;48.150;17.142;2023-07-24T12:45:57;33.30;51.10
12309;DHT22;6217;48.150;17.142;2023-07-24T12:50:03;33.20;51.50
12309;DHT22;6217;48.150;17.142;2023-07-24T12:54:09;33.10;51.80
12309;DHT22;6217;48.150;17.142;2023-07-24T12:58:15;33.20;51.80
12309;DHT22;6217;48.150;17.142;2023-07-24T13:02:21;33.20;51.60
12309;DHT22;6217;48.150;17.142;2023-07-24T13:06:27;33.20;51.30
12309;DHT22;6217;48.150;17.142;2023-07-24T13:10:33;33.30;50.30
12309;DHT22;6217;48.150;17.142;2023-07-24T13:14:39;33.30;50.10
12309;DHT22;6217;48.150;17.142;2023-07-24T13:18:45;33.20;49.00
12309;DHT22;6217;48.150;17.142;2023-07-24T13:22:51;33.10;48.70
12309;DHT22;6217;48.150;17.142;2023-07-24T13:26:57;33.20;48.60
12309;DHT22;6217;48.150;17.142;2023-07-24T13:31:19;33.20;48.30
12309;DHT22;6217;48.150;17.142;2023-07-24T13:35:26;33.10;48.10
12309;DHT22;6217;48.150;17.142;2023-07-24T13:39:31;33.10;48.50
12309;DHT22;6217;48.150;17.142;2023-07-24T13:43:39;33.10;48.60
12309;DHT22;6217;48.150;17.142;2023-07-24T13:47:45;33.00;48.30
12309;DHT22;6217;48.150;17.142;2023-07-24T13:51:51;33.00;48.40
12309;DHT22;6217;48.150;17.142;2023-07-24T13:55:57;32.90;48.50
12309;DHT22;6217;48.150;17.142;2023-07-24T14:00:03;33.10;48.70
12309;DHT22;6217;48.150;17.142;2023-07-24T14:04:17;33.10;48.80
12309;DHT22;6217;48.150;17.142;2023-07-24T14:08:23;33.10;48.90
12309;DHT22;6217;48.150;17.142;2023-07-24T14:12:29;33.10;48.90
12309;DHT22;6217;48.150;17.142;2023-07-24T14:16:35;33.10;48.50
12309;DHT22;6217;48.150;17.142;2023-07-24T14:20:41;33.00;48.00
12309;DHT22;6217;48.150;17.142;2023-07-24T14:24:47;32.90;47.80
12309;DHT22;6217;48.150;17.142;2023-07-24T14:28:53;32.90;47.90
12309;DHT22;6217;48.150;17.142;2023-07-24T14:32:59;32.90;47.90
12309;DHT22;6217;48.150;17.142;2023-07-24T14:37:05;32.80;48.00
12309;DHT22;6217;48.150;17.142;2023-07-24T14:41:11;32.80;48.10
12309;DHT22;6217;48.150;17.142;2023-07-24T14:45:18;32.80;48.30
12309;DHT22;6217;48.150;17.142;2023-07-24T14:49:24;32.60;48.30
12309;DHT22;6217;48.150;17.142;2023-07-24T14:53:30;32.50;48.60
12309;DHT22;6217;48.150;17.142;2023-07-24T14:57:36;32.50;48.80
12309;DHT22;6217;48.150;17.142;2023-07-24T15:01:42;32.40;49.00
12309;DHT22;6217;48.150;17.142;2023-07-24T15:05:48;32.30;48.80
12309;DHT22;6217;48.150;17.142;2023-07-24T15:09:54;32.30;49.10
12309;DHT22;6217;48.150;17.142;2023-07-24T15:14:00;32.30;49.30
12309;DHT22;6217;48.150;17.142;2023-07-24T15:18:06;32.20;49.50
12309;DHT22;6217;48.150;17.142;2023-07-24T15:22:11;32.10;49.70
12309;DHT22;6217;48.150;17.142;2023-07-24T15:26:18;32.00;50.00
12309;DHT22;6217;48.150;17.142;2023-07-24T15:30:24;32.00;50.30
12309;DHT22;6217;48.150;17.142;2023-07-24T15:34:30;32.00;50.40
12309;DHT22;6217;48.150;17.142;2023-07-24T15:38:36;32.00;50.60
12309;DHT22;6217;48.150;17.142;2023-07-24T15:42:42;32.00;50.60
12309;DHT22;6217;48.150;17.142;2023-07-24T15:46:48;32.00;50.90
12309;DHT22;6217;48.150;17.142;2023-07-24T15:50:54;31.90;51.00
12309;DHT22;6217;48.150;17.142;2023-07-24T15:55:00;31.80;51.10
12309;DHT22;6217;48.150;17.142;2023-07-24T15:59:06;31.80;51.30
12309;DHT22;6217;48.150;17.142;2023-07-24T16:03:12;31.80;51.50
12309;DHT22;6217;48.150;17.142;2023-07-24T16:07:19;31.80;51.60
12309;DHT22;6217;48.150;17.142;2023-07-24T16:11:26;31.70;51.70
12309;DHT22;6217;48.150;17.142;2023-07-24T16:15:31;31.60;51.80
12309;DHT22;6217;48.150;17.142;2023-07-24T16:19:37;31.60;52.00
12309;DHT22;6217;48.150;17.142;2023-07-24T16:23:44;31.50;52.00
12309;DHT22;6217;48.150;17.142;2023-07-24T16:27:50;31.40;52.10
12309;DHT22;6217;48.150;17.142;2023-07-24T16:31:56;31.50;52.20
12309;DHT22;6217;48.150;17.142;2023-07-24T16:36:02;31.40;52.30
12309;DHT22;6217;48.150;17.142;2023-07-24T16:40:08;31.40;52.30
12309;DHT22;6217;48.150;17.142;2023-07-24T16:44:16;31.30;52.40
12309;DHT22;6217;48.150;17.142;2023-07-24T16:48:21;31.20;52.50
12309;DHT22;6217;48.150;17.142;2023-07-24T16:52:27;31.20;52.70
12309;DHT22;6217;48.150;17.142;2023-07-24T16:56:33;31.10;52.90
12309;DHT22;6217;48.150;17.142;2023-07-24T17:00:39;30.90;53.10
12309;DHT22;6217;48.150;17.142;2023-07-24T17:04:45;30.90;53.60
12309;DHT22;6217;48.150;17.142;2023-07-24T17:08:51;30.80;53.90
12309;DHT22;6217;48.150;17.142;2023-07-24T17:12:57;30.70;54.20
12309;DHT22;6217;48.150;17.142;2023-07-24T17:17:03;30.70;54.20
12309;DHT22;6217;48.150;17.142;2023-07-24T17:21:09;30.60;54.30
12309;DHT22;6217;48.150;17.142;2023-07-24T17:25:15;30.50;54.40
12309;DHT22;6217;48.150;17.142;2023-07-24T17:29:20;30.50;54.60
12309;DHT22;6217;48.150;17.142;2023-07-24T17:33:26;30.50;54.70
12309;DHT22;6217;48.150;17.142;2023-07-24T17:37:32;30.40;54.70
12309;DHT22;6217;48.150;17.142;2023-07-24T17:41:39;30.40;54.80
12309;DHT22;6217;48.150;17.142;2023-07-24T17:45:45;30.40;54.60
12309;DHT22;6217;48.150;17.142;2023-07-24T17:49:51;30.40;54.60
12309;DHT22;6217;48.150;17.142;2023-07-24T17:53:57;30.40;54.40
12309;DHT22;6217;48.150;17.142;2023-07-24T17:58:04;30.40;54.30
12309;DHT22;6217;48.150;17.142;2023-07-24T18:02:10;30.40;54.30
12309;DHT22;6217;48.150;17.142;2023-07-24T18:06:15;30.40;54.30
12309;DHT22;6217;48.150;17.142;2023-07-24T18:10:21;30.40;54.30
12309;DHT22;6217;48.150;17.142;2023-07-24T18:14:27;30.30;54.30
12309;DHT22;6217;48.150;17.142;2023-07-24T18:18:34;30.40;54.60
12309;DHT22;6217;48.150;17.142;2023-07-24T18:22:40;30.30;54.60
12309;DHT22;6217;48.150;17.142;2023-07-24T18:26:47;30.40;54.60
12309;DHT22;6217;48.150;17.142;2023-07-24T18:30:53;30.40;54.70
12309;DHT22;6217;48.150;17.142;2023-07-24T18:34:58;30.40;54.60
12309;DHT22;6217;48.150;17.142;2023-07-24T18:39:05;30.40;54.30
12309;DHT22;6217;48.150;17.142;2023-07-24T18:43:13;30.40;53.90
12309;DHT22;6217;48.150;17.142;2023-07-24T18:47:19;30.40;53.20
12309;DHT22;6217;48.150;17.142;2023-07-24T18:51:25;30.40;52.30
12309;DHT22;6217;48.150;17.142;2023-07-24T18:55:31;30.40;51.70
12309;DHT22;6217;48.150;17.142;2023-07-24T18:59:37;30.40;50.70
12309;DHT22;6217;48.150;17.142;2023-07-24T19:03:43;30.30;49.80
12309;DHT22;6217;48.150;17.142;2023-07-24T19:07:49;30.20;48.60
12309;DHT22;6217;48.150;17.142;2023-07-24T19:11:55;30.00;47.50
12309;DHT22;6217;48.150;17.142;2023-07-24T19:16:01;29.90;47.10
12309;DHT22;6217;48.150;17.142;2023-07-24T19:20:11;29.80;46.70
12309;DHT22;6217;48.150;17.142;2023-07-24T19:24:17;29.70;46.00
12309;DHT22;6217;48.150;17.142;2023-07-24T19:28:23;29.60;45.80
12309;DHT22;6217;48.150;17.142;2023-07-24T19:32:29;29.50;45.70
12309;DHT22;6217;48.150;17.142;2023-07-24T19:36:35;29.40;45.70
12309;DHT22;6217;48.150;17.142;2023-07-24T19:40:41;29.20;45.50
12309;DHT22;6217;48.150;17.142;2023-07-24T19:44:47;29.00;45.60
12309;DHT22;6217;48.150;17.142;2023-07-24T19:48:54;28.90;45.70
12309;DHT22;6217;48.150;17.142;2023-07-24T19:52:59;28.70;45.70
12309;DHT22;6217;48.150;17.142;2023-07-24T19:57:06;28.60;45.80
12309;DHT22;6217;48.150;17.142;2023-07-24T20:01:41;28.50;45.70
12309;DHT22;6217;48.150;17.142;2023-07-24T20:05:57;28.40;45.80
12309;DHT22;6217;48.150;17.142;2023-07-24T20:10:04;28.30;46.00
12309;DHT22;6217;48.150;17.142;2023-07-24T20:14:10;28.20;46.20
12309;DHT22;6217;48.150;17.142;2023-07-24T20:18:16;28.10;46.20
12309;DHT22;6217;48.150;17.142;2023-07-24T20:22:22;28.10;46.60
12309;DHT22;6217;48.150;17.142;2023-07-24T20:26:28;28.00;46.80
12309;DHT22;6217;48.150;17.142;2023-07-24T20:30:35;27.90;47.10
12309;DHT22;6217;48.150;17.142;2023-07-24T20:34:41;27.80;47.30
12309;DHT22;6217;48.150;17.142;2023-07-24T20:38:47;27.70;47.60
12309;DHT22;6217;48.150;17.142;2023-07-24T20:42:53;27.60;48.10
12309;DHT22;6217;48.150;17.142;2023-07-24T20:46:59;27.50;48.40
12309;DHT22;6217;48.150;17.142;2023-07-24T20:51:13;27.40;49.40
12309;DHT22;6217;48.150;17.142;2023-07-24T20:55:21;27.30;49.20
12309;DHT22;6217;48.150;17.142;2023-07-24T20:59:27;27.20;49.30
12309;DHT22;6217;48.150;17.142;2023-07-24T21:03:33;27.10;49.70
12309;DHT22;6217;48.150;17.142;2023-07-24T21:07:40;27.00;50.00
12309;DHT22;6217;48.150;17.142;2023-07-24T21:11:49;26.90;50.40
12309;DHT22;6217;48.150;17.142;2023-07-24T21:15:55;26.80;50.60
12309;DHT22;6217;48.150;17.142;2023-07-24T21:20:05;26.70;51.00
12309;DHT22;6217;48.150;17.142;2023-07-24T21:24:18;26.70;51.50
12309;DHT22;6217;48.150;17.142;2023-07-24T21:28:25;26.60;51.70
12309;DHT22;6217;48.150;17.142;2023-07-24T21:32:33;26.60;51.80
12309;DHT22;6217;48.150;17.142;2023-07-24T21:36:39;26.50;52.10
12309;DHT22;6217;48.150;17.142;2023-07-24T21:40:45;26.50;52.40
12309;DHT22;6217;48.150;17.142;2023-07-24T21:44:51;26.50;52.60
12309;DHT22;6217;48.150;17.142;2023-07-24T21:48:57;26.50;52.70
12309;DHT22;6217;48.150;17.142;2023-07-24T21:53:03;26.40;52.80
12309;DHT22;6217;48.150;17.142;2023-07-24T21:57:12;26.40;52.80
12309;DHT22;6217;48.150;17.142;2023-07-24T22:01:22;26.40;53.00
12309;DHT22;6217;48.150;17.142;2023-07-24T22:05:28;26.30;53.20
12309;DHT22;6217;48.150;17.142;2023-07-24T22:09:34;26.20;53.50
12309;DHT22;6217;48.150;17.142;2023-07-24T22:13:40;26.20;53.80
12309;DHT22;6217;48.150;17.142;2023-07-24T22:17:59;26.20;54.50
12309;DHT22;6217;48.150;17.142;2023-07-24T22:22:05;26.20;54.20
12309;DHT22;6217;48.150;17.142;2023-07-24T22:26:11;26.10;53.90
12309;DHT22;6217;48.150;17.142;2023-07-24T22:30:18;26.20;53.90
12309;DHT22;6217;48.150;17.142;2023-07-24T22:34:25;26.20;53.70
12309;DHT22;6217;48.150;17.142;2023-07-24T22:38:30;26.20;53.50
12309;DHT22;6217;48.150;17.142;2023-07-24T22:42:36;26.20;53.40
12309;DHT22;6217;48.150;17.142;2023-07-24T22:46:42;26.30;53.30
12309;DHT22;6217;48.150;17.142;2023-07-24T22:50:48;26.30;53.10
12309;DHT22;6217;48.150;17.142;2023-07-24T22:54:54;26.30;53.00
12309;DHT22;6217;48.150;17.142;2023-07-24T23:03:09;26.40;52.70
12309;DHT22;6217;48.150;17.142;2023-07-24T23:07:17;26.40;52.50
12309;DHT22;6217;48.150;17.142;2023-07-24T23:11:23;26.50;52.40
12309;DHT22;6217;48.150;17.142;2023-07-24T23:15:29;26.50;52.20
12309;DHT22;6217;48.150;17.142;2023-07-24T23:19:35;26.50;52.20
12309;DHT22;6217;48.150;17.142;2023-07-24T23:23:41;26.50;52.10
12309;DHT22;6217;48.150;17.142;2023-07-24T23:27:48;26.60;52.10
12309;DHT22;6217;48.150;17.142;2023-07-24T23:31:54;26.60;52.10
12309;DHT22;6217;48.150;17.142;2023-07-24T23:36:01;26.60;52.00
12309;DHT22;6217;48.150;17.142;2023-07-24T23:40:09;26.60;51.90
12309;DHT22;6217;48.150;17.142;2023-07-24T23:44:15;26.60;51.80
12309;DHT22;6217;48.150;17.142;2023-07-24T23:48:20;26.60;51.80
12309;DHT22;6217;48.150;17.142;2023-07-24T23:52:27;26.60;52.00
12309;DHT22;6217;48.150;17.142;2023-07-24T23:56:33;26.50;52.40
